Time;durP1;ratioP1;P1;durP2;ratioP2;P2;SDS_P1;SDS_P2;PMS_P1;PMS_P2;Temp;Humidity;BMP_temperature;BMP_pressure;BME280_temperature;BME280_humidity;BME280_pressure;Samples;Min_cycle;Max_cycle;Signal;HPM_P1;HPM_P2
2021/04/14 00:00:33;;;;;;;13.98;9.35;;;;;;;1.40;74.07;103193.31;5010932;28;20519;-56
2021/04/14 00:03:00;;;;;;;12.55;8.65;;;;;;;1.45;73.72;103191.66;5012124;28;20112;-55
2021/04/14 00:05:32;;;;;;;14.10;8.98;;;;;;;1.42;74.20;103202.00;5010769;28;20038;-56
2021/04/14 00:07:59;;;;;;;12.38;8.30;;;;;;;1.50;73.71;103195.16;5012018;28;20065;-55
2021/04/14 00:10:30;;;;;;;13.02;7.88;;;;;;;1.45;73.87;103186.47;4994450;28;20069;-57
2021/04/14 00:13:00;;;;;;;14.82;8.10;;;;;;;1.52;73.67;103192.56;5012131;28;20046;-55
2021/04/14 00:15:33;;;;;;;12.32;8.32;;;;;;;1.43;73.98;103202.84;5011954;28;20046;-54
2021/04/14 00:17:59;;;;;;;12.20;8.48;;;;;;;1.44;74.58;103189.91;5012022;28;20547;-56
2021/04/14 00:20:26;;;;;;;13.73;8.13;;;;;;;1.52;74.79;103193.44;5012070;28;20092;-56
2021/04/14 00:22:52;;;;;;;12.43;8.93;;;;;;;1.43;75.48;103189.88;5010720;28;20076;-55
2021/04/14 00:25:26;;;;;;;13.52;8.30;;;;;;;1.43;75.67;103187.28;4994536;28;20066;-56
2021/04/14 00:27:56;;;;;;;14.25;9.32;;;;;;;1.46;75.73;103193.38;5011951;28;20485;-56
2021/04/14 00:30:23;;;;;;;14.30;8.60;;;;;;;1.42;76.06;103186.44;5010531;28;20575;-56
2021/04/14 00:32:50;;;;;;;15.52;9.30;;;;;;;1.44;75.76;103183.84;4994557;28;20133;-53
2021/04/14 00:35:19;;;;;;;13.02;8.20;;;;;;;1.48;75.55;103178.69;5010476;28;20038;-54
2021/04/14 00:37:46;;;;;;;12.13;9.00;;;;;;;1.58;75.21;103177.09;5010799;28;20065;-54
2021/04/14 00:40:16;;;;;;;16.15;9.43;;;;;;;1.56;75.20;103172.75;5012026;28;20048;-55
2021/04/14 00:42:43;;;;;;;14.25;9.10;;;;;;;1.57;75.56;103164.06;5010645;28;20050;-57
2021/04/14 00:45:10;;;;;;;14.77;9.20;;;;;;;1.47;76.68;103171.78;5010648;28;20112;-57
2021/04/14 00:47:36;;;;;;;15.63;9.60;;;;;;;1.51;77.09;103167.50;5026644;28;20046;-52
2021/04/14 00:50:08;;;;;;;12.43;8.38;;;;;;;1.61;76.44;103165.84;5010420;28;20145;-57
2021/04/14 00:52:34;;;;;;;12.80;8.80;;;;;;;1.62;76.07;103172.78;5010343;28;20053;-56
2021/04/14 00:55:01;;;;;;;13.60;9.25;;;;;;;1.68;75.72;103172.84;5011639;28;20081;-56
2021/04/14 00:57:27;;;;;;;13.95;9.38;;;;;;;1.63;77.11;103174.53;5010315;28;20042;-57
2021/04/14 00:59:53;;;;;;;17.20;10.63;;;;;;;1.62;77.98;103173.69;5010197;28;20046;-55
2021/04/14 01:02:20;;;;;;;14.45;9.63;;;;;;;1.62;77.59;103173.69;5012585;28;20057;-53
2021/04/14 01:04:46;;;;;;;14.98;9.07;;;;;;;1.68;77.33;103167.66;5015701;28;20436;-54
2021/04/14 01:07:12;;;;;;;14.18;9.52;;;;;;;1.74;76.79;103169.44;5015443;28;20504;-51
2021/04/14 01:09:39;;;;;;;17.60;10.15;;;;;;;1.71;76.56;103162.50;5015248;28;20456;-54
2021/04/14 01:12:06;;;;;;;18.85;10.90;;;;;;;1.72;76.99;103166.84;5015120;28;20455;-55
2021/04/14 01:14:32;;;;;;;14.80;10.25;;;;;;;1.68;77.80;103159.88;5030353;28;20052;-51
2021/04/14 01:16:58;;;;;;;14.75;9.88;;;;;;;1.72;76.29;103169.44;5013683;28;20049;-58
2021/04/14 01:19:25;;;;;;;15.75;10.23;;;;;;;1.72;76.45;103159.06;5013811;28;20073;-53
2021/04/14 01:21:51;;;;;;;17.27;9.27;;;;;;;1.73;76.74;103160.78;5013770;28;20067;-56
2021/04/14 01:24:17;;;;;;;15.38;9.65;;;;;;;1.79;75.96;103165.16;5014850;28;20049;-55
2021/04/14 01:26:44;;;;;;;13.93;9.35;;;;;;;1.81;76.67;103164.34;5013816;28;20046;-56
2021/04/14 01:29:11;;;;;;;13.57;9.63;;;;;;;1.78;76.70;103169.47;5013494;28;20050;-53
2021/04/14 01:31:37;;;;;;;14.00;9.15;;;;;;;1.75;76.59;103166.00;5013789;28;20046;-52
2021/04/14 01:34:08;;;;;;;11.60;8.85;;;;;;;1.77;76.67;103161.69;5013024;28;20124;-53
2021/04/14 01:36:34;;;;;;;13.70;8.70;;;;;;;1.90;75.86;103153.16;5014158;28;20500;-53
2021/04/14 01:39:03;;;;;;;13.00;8.30;;;;;;;1.86;76.37;103161.75;5013220;28;20046;-54
2021/04/14 01:41:30;;;;;;;15.32;8.80;;;;;;;1.84;76.23;103164.34;5014022;28;20121;-55
2021/04/14 01:43:56;;;;;;;14.43;8.80;;;;;;;1.97;76.06;103164.44;5014026;28;20050;-55
2021/04/14 01:46:22;;;;;;;11.95;8.52;;;;;;;1.95;75.94;103163.56;5014006;28;20050;-56
2021/04/14 01:48:49;;;;;;;12.35;8.15;;;;;;;1.90;76.18;103157.47;5013264;28;20061;-55
2021/04/14 01:51:15;;;;;;;11.88;8.57;;;;;;;1.97;76.03;103161.84;5014220;28;20049;-55
2021/04/14 01:53:44;;;;;;;13.18;8.55;;;;;;;1.92;75.54;103158.34;5013361;28;20136;-56
2021/04/14 01:56:10;;;;;;;13.90;9.07;;;;;;;1.89;75.74;103155.72;5012978;28;20061;-56
2021/04/14 01:58:36;;;;;;;14.20;9.18;;;;;;;1.88;75.81;103157.44;5013010;28;20053;-55
2021/04/14 02:01:07;;;;;;;12.77;8.52;;;;;;;1.93;75.60;103154.91;5013018;28;20052;-56
2021/04/14 02:03:39;;;;;;;12.10;8.57;;;;;;;1.95;75.85;103142.78;5014128;28;20133;-56
2021/04/14 02:06:07;;;;;;;14.15;9.52;;;;;;;1.91;75.54;103151.41;5013062;28;20495;-56
2021/04/14 02:08:34;;;;;;;13.60;9.15;;;;;;;1.97;75.52;103151.47;5014071;28;20419;-56
2021/04/14 02:11:04;;;;;;;14.23;9.15;;;;;;;1.96;76.60;103152.31;5014030;28;20046;-53
2021/04/14 02:13:33;;;;;;;12.35;9.07;;;;;;;1.85;76.67;103154.81;5012848;28;20485;-56
2021/04/14 02:16:00;;;;;;;14.25;9.65;;;;;;;1.83;76.25;103151.38;5012996;28;20046;-56
2021/04/14 02:18:26;;;;;;;14.00;8.52;;;;;;;1.84;76.38;103153.97;5013884;28;20103;-52
2021/04/14 02:20:53;;;;;;;15.73;10.43;;;;;;;1.81;77.29;103153.06;5013075;28;20054;-57
2021/04/14 02:23:27;;;;;;;15.15;9.63;;;;;;;1.86;77.57;103152.25;5012811;28;20056;-54
2021/04/14 02:25:58;;;;;;;14.57;9.85;;;;;;;1.80;76.98;103144.41;5012777;28;20049;-53
2021/04/14 02:28:25;;;;;;;15.77;9.30;;;;;;;1.74;78.08;103141.75;5012667;28;20077;-54
2021/04/14 02:30:52;;;;;;;13.82;10.02;;;;;;;1.75;77.66;103140.91;4996438;28;20050;-56
2021/04/14 02:33:19;;;;;;;13.30;8.90;;;;;;;1.79;77.08;103145.28;5012330;28;20042;-52
2021/04/14 02:35:46;;;;;;;13.82;9.38;;;;;;;1.85;77.80;103147.94;4996261;28;20489;-56
2021/04/14 02:38:13;;;;;;;12.88;8.80;;;;;;;1.91;76.50;103133.25;5013610;28;20046;-54
2021/04/14 02:40:39;;;;;;;12.82;8.52;;;;;;;2.00;76.31;103135.91;5013569;28;20148;-53
2021/04/14 02:43:07;;;;;;;12.48;8.73;;;;;;;1.98;76.31;103138.50;5028611;28;20092;-55
2021/04/14 02:45:36;;;;;;;13.55;10.15;;;;;;;1.90;77.10;103126.34;5013103;28;20046;-55
2021/04/14 02:48:03;;;;;;;16.27;9.73;;;;;;;1.89;77.49;103133.22;5028609;28;20073;-57
2021/04/14 02:50:30;;;;;;;15.48;10.00;;;;;;;1.86;77.39;103126.28;5012034;28;20046;-57
2021/04/14 02:52:56;;;;;;;15.95;9.65;;;;;;;1.94;76.88;103134.13;5012167;28;20104;-53
2021/04/14 02:55:25;;;;;;;11.32;8.70;;;;;;;2.01;76.87;103132.47;5013335;28;20056;-55
2021/04/14 02:57:51;;;;;;;13.80;9.90;;;;;;;1.95;77.41;103122.03;5013392;28;20480;-54
2021/04/14 03:00:22;;;;;;;13.38;8.93;;;;;;;1.96;77.06;103124.63;5013005;28;20390;-56
2021/04/14 03:02:49;;;;;;;13.95;9.13;;;;;;;1.96;77.17;103123.78;5013308;28;20053;-53
2021/04/14 03:05:17;;;;;;;13.02;8.70;;;;;;;1.91;77.13;103121.16;5011524;28;20439;-56
2021/04/14 03:07:44;;;;;;;15.20;10.27;;;;;;;1.93;76.92;103115.97;5011583;28;20050;-55
2021/04/14 03:10:11;;;;;;;14.18;10.38;;;;;;;1.85;77.45;103113.31;5012526;28;20382;-53
2021/04/14 03:12:38;;;;;;;16.65;9.43;;;;;;;1.80;77.51;103115.88;5012735;28;20505;-53
2021/04/14 03:15:07;;;;;;;13.07;9.23;;;;;;;1.79;77.18;103111.53;5012622;28;20042;-57
2021/04/14 03:17:33;;;;;;;13.68;9.23;;;;;;;1.75;77.15;103102.00;5011358;28;20037;-56
2021/04/14 03:20:00;;;;;;;16.80;9.82;;;;;;;1.74;77.41;103104.56;5011695;28;20533;-57
2021/04/14 03:22:26;;;;;;;15.15;10.57;;;;;;;1.65;77.58;103101.06;5010916;28;20108;-57
2021/04/14 03:24:53;;;;;;;15.60;10.32;;;;;;;1.67;76.90;103098.47;5011910;28;20054;-57
2021/04/14 03:27:19;;;;;;;13.38;9.82;;;;;;;1.77;75.52;103096.81;5012253;28;20397;-54
2021/04/14 03:29:45;;;;;;;14.50;10.00;;;;;;;1.72;75.63;103099.38;5011536;28;20058;-57
2021/04/14 03:32:15;;;;;;;15.18;10.15;;;;;;;1.64;76.00;103103.63;5012583;28;20050;-52
2021/04/14 03:34:41;;;;;;;13.45;9.65;;;;;;;1.76;75.96;103098.53;5012780;28;20496;-54
2021/04/14 03:37:07;;;;;;;13.70;9.18;;;;;;;1.74;75.15;103117.56;5011416;28;20497;-56
2021/04/14 03:39:34;;;;;;;13.32;9.70;;;;;;;1.68;75.14;103106.25;5011310;28;20049;-54
2021/04/14 03:42:03;;;;;;;16.25;10.68;;;;;;;1.67;75.25;103111.44;5012558;28;20416;-53
2021/04/14 03:44:33;;;;;;;14.13;10.68;;;;;;;1.64;75.68;103111.41;5012464;28;20045;-50
2021/04/14 03:47:00;;;;;;;14.55;9.73;;;;;;;1.57;75.94;103110.50;5012403;28;20038;-55
2021/04/14 03:49:27;;;;;;;13.15;10.05;;;;;;;1.59;75.33;103106.19;4994953;28;20056;-56
2021/04/14 03:51:54;;;;;;;16.23;10.80;;;;;;;1.55;75.63;103116.53;5012229;28;20058;-53
2021/04/14 03:54:20;;;;;;;16.13;10.50;;;;;;;1.54;76.19;103104.41;5011005;28;20439;-54
2021/04/14 03:57:05;;;;;;;15.20;10.30;;;;;;;1.57;76.60;103107.91;5012268;28;20038;-55
2021/04/14 03:59:49;;;;;;;16.45;11.02;;;;;;;1.52;77.50;103113.03;5012200;28;20038;-57
2021/04/14 04:02:15;;;;;;;14.65;9.95;;;;;;;1.52;76.91;103104.38;5012199;28;20050;-54
2021/04/14 04:04:42;;;;;;;13.25;10.20;;;;;;;1.58;76.98;103099.28;5011292;28;20443;-55
2021/04/14 04:07:08;;;;;;;17.15;11.40;;;;;;;1.54;76.93;103102.69;5027271;28;20044;-54
2021/04/14 04:09:34;;;;;;;15.65;11.20;;;;;;;1.56;77.03;103100.97;5011889;28;20057;-56
2021/04/14 04:12:02;;;;;;;18.02;11.35;;;;;;;1.53;77.33;103111.31;5012227;28;20381;-56
2021/04/14 04:14:32;;;;;;;17.00;10.90;;;;;;;1.51;77.01;103111.31;5010877;28;20120;-54
2021/04/14 04:16:59;;;;;;;17.63;10.60;;;;;;;1.41;78.16;103119.84;5011747;28;20497;-53
2021/04/14 04:19:29;;;;;;;16.15;10.45;;;;;;;1.36;78.24;103113.75;5026556;28;20516;-54
2021/04/14 04:21:56;;;;;;;14.02;9.27;;;;;;;1.34;78.63;103118.06;5011849;28;20057;-56
2021/04/14 04:24:25;;;;;;;16.23;9.85;;;;;;;1.34;78.41;103123.25;5026384;28;20050;-53
2021/04/14 04:26:51;;;;;;;16.05;9.75;;;;;;;1.38;77.46;103130.19;5011599;28;20042;-53
2021/04/14 04:29:17;;;;;;;20.17;10.63;;;;;;;1.35;77.68;103128.44;5010265;28;20049;-52
2021/04/14 04:31:46;;;;;;;18.00;9.63;;;;;;;1.38;77.80;103127.63;5012092;28;20381;-55
2021/04/14 04:34:13;;;;;;;18.30;9.27;;;;;;;1.41;77.67;103131.97;5010641;28;20042;-56
2021/04/14 04:36:40;;;;;;;15.27;8.23;;;;;;;1.43;77.34;103120.75;5011852;28;20204;-55
2021/04/14 04:39:08;;;;;;;14.48;7.75;;;;;;;1.48;76.99;103128.56;5015979;28;20132;-54
2021/04/14 04:41:34;;;;;;;17.95;7.97;;;;;;;1.67;75.87;103127.00;5014785;28;20041;-56
2021/04/14 04:44:03;;;;;;;15.75;7.63;;;;;;;1.62;75.82;103131.28;5015933;28;20096;-54
2021/04/14 04:46:29;;;;;;;16.08;8.18;;;;;;;1.63;76.17;103128.69;5015958;28;20049;-54
2021/04/14 04:48:55;;;;;;;16.48;8.38;;;;;;;1.63;76.24;103118.31;5015770;28;20050;-56
2021/04/14 04:51:22;;;;;;;16.27;8.05;;;;;;;1.69;75.87;103120.97;5014351;28;20058;-57
2021/04/14 04:53:48;;;;;;;14.90;8.02;;;;;;;1.67;75.73;103119.22;5015577;28;20053;-56
2021/04/14 04:56:16;;;;;;;16.00;7.28;;;;;;;1.69;75.19;103117.50;5015511;28;20046;-55
2021/04/14 04:58:43;;;;;;;17.23;9.07;;;;;;;1.71;75.24;103120.97;5014223;28;20045;-58
2021/04/14 05:01:10;;;;;;;15.00;7.72;;;;;;;1.71;75.50;103127.91;5015387;28;20054;-56
2021/04/14 05:03:39;;;;;;;22.30;9.27;;;;;;;1.75;74.68;103130.53;5014208;28;20160;-55
2021/04/14 05:06:06;;;;;;;15.48;7.65;;;;;;;1.75;74.84;103129.69;5014366;28;20664;-55
2021/04/14 05:08:32;;;;;;;13.02;8.00;;;;;;;1.76;75.24;103132.28;5013575;28;20137;-54
2021/04/14 05:10:58;;;;;;;14.18;7.78;;;;;;;1.79;75.37;103134.88;5014983;28;20048;-56
2021/04/14 05:13:24;;;;;;;14.98;7.60;;;;;;;1.78;75.04;103133.16;5014016;28;20038;-54
2021/04/14 05:15:52;;;;;;;22.95;8.73;;;;;;;1.78;74.99;103134.88;5015113;28;20068;-56
2021/04/14 05:18:18;;;;;;;14.95;8.05;;;;;;;1.78;75.11;103135.75;5013994;28;20056;-55
2021/04/14 05:20:45;;;;;;;14.98;7.90;;;;;;;1.81;75.65;103134.91;5014825;28;20048;-54
2021/04/14 05:23:12;;;;;;;15.18;8.23;;;;;;;1.82;75.75;103140.09;5015207;28;20046;-57
2021/04/14 05:25:41;;;;;;;16.52;8.90;;;;;;;1.82;76.85;103144.44;5030258;28;20045;-54
2021/04/14 05:28:10;;;;;;;17.63;9.02;;;;;;;1.80;77.03;103139.22;4998168;28;20042;-54
2021/04/14 05:30:40;;;;;;;18.90;9.15;;;;;;;1.83;76.84;103141.84;5013635;28;20050;-56
2021/04/14 05:33:08;;;;;;;17.70;8.52;;;;;;;1.87;76.63;103147.94;5014990;28;20061;-52
2021/04/14 05:35:35;;;;;;;20.55;9.10;;;;;;;1.92;76.12;103156.59;5013863;28;20369;-56
2021/04/14 05:38:02;;;;;;;21.67;10.15;;;;;;;1.90;76.27;103149.69;5013636;28;20058;-56
2021/04/14 05:40:28;;;;;;;19.90;10.73;;;;;;;1.95;75.60;103155.75;5013496;28;20041;-54
2021/04/14 05:42:54;;;;;;;24.08;11.50;;;;;;;2.02;75.39;103152.38;5030029;28;20046;-52
2021/04/14 05:45:24;;;;;;;20.83;10.75;;;;;;;2.06;75.16;103155.84;5013465;28;20092;-53
2021/04/14 05:47:50;;;;;;;18.00;10.15;;;;;;;2.06;75.46;103161.03;5014408;28;20068;-54
2021/04/14 05:50:20;;;;;;;20.27;10.50;;;;;;;2.10;75.95;103161.09;5014638;28;20496;-56
2021/04/14 05:52:47;;;;;;;19.23;9.55;;;;;;;2.13;76.08;103162.84;5012755;28;20137;-53
2021/04/14 05:55:14;;;;;;;18.15;9.70;;;;;;;2.17;75.70;103165.47;5012542;28;20041;-55
2021/04/14 05:57:40;;;;;;;14.68;9.48;;;;;;;2.25;75.39;103173.31;5013504;28;20038;-54
2021/04/14 06:00:09;;;;;;;17.65;9.43;;;;;;;2.33;74.92;103174.25;5012465;28;20464;-53
2021/04/14 06:02:36;;;;;;;17.02;8.95;;;;;;;2.36;75.09;103176.00;5013330;28;20038;-53
2021/04/14 06:05:04;;;;;;;16.33;10.38;;;;;;;2.41;74.37;103176.00;5012063;28;20488;-54
2021/04/14 06:07:30;;;;;;;19.27;9.70;;;;;;;2.41;74.22;103171.66;5012073;28;20052;-54
2021/04/14 06:09:56;;;;;;;17.58;9.27;;;;;;;2.44;74.28;103176.00;5013370;28;20056;-54
2021/04/14 06:12:23;;;;;;;15.50;9.00;;;;;;;2.46;73.61;103184.69;5013167;28;20132;-56
2021/04/14 06:14:49;;;;;;;14.20;8.88;;;;;;;2.52;73.60;103185.63;5012967;28;20046;-54
2021/04/14 06:17:15;;;;;;;15.25;9.18;;;;;;;2.57;73.85;103183.03;5013039;28;20049;-54
2021/04/14 06:19:49;;;;;;;16.77;9.38;;;;;;;2.63;74.25;103189.97;5012940;28;20058;-54
2021/04/14 06:22:22;;;;;;;14.98;9.05;;;;;;;2.71;73.71;103185.69;5013066;28;20555;-54
2021/04/14 06:24:49;;;;;;;15.68;9.13;;;;;;;2.82;72.89;103193.56;5013138;28;20042;-54
2021/04/14 06:27:28;;;;;;;17.75;9.23;;;;;;;2.79;73.01;103189.19;5011876;28;20050;-54
2021/04/14 06:29:54;;;;;;;17.02;9.65;;;;;;;2.84;72.87;103192.69;5013052;28;20049;-55
2021/04/14 06:32:20;;;;;;;15.43;9.25;;;;;;;2.88;72.47;103191.84;5011914;28;20500;-56
2021/04/14 06:34:50;;;;;;;13.35;9.10;;;;;;;2.95;73.13;103190.16;5012794;28;20050;-54
2021/04/14 06:37:16;;;;;;;14.95;9.48;;;;;;;3.01;72.40;103190.19;5012734;28;20045;-55
2021/04/14 06:39:42;;;;;;;19.70;9.60;;;;;;;3.02;73.13;103191.06;5012681;28;20042;-56
2021/04/14 06:42:57;;;;;;;16.80;9.25;;;;;;;3.16;71.70;103193.69;5013080;28;20538;-56
2021/04/14 06:45:27;;;;;;;16.17;9.63;;;;;;;3.21;71.94;103190.25;4990349;28;20628;-55
2021/04/14 06:48:06;;;;;;;18.00;9.85;;;;;;;3.28;71.83;103195.47;4990880;28;20054;-56
2021/04/14 06:51:01;;;;;;;15.68;9.02;;;;;;;3.37;72.45;103196.38;5004194;28;20111;-55
2021/04/14 06:53:31;;;;;;;18.25;9.85;;;;;;;3.51;72.42;103195.53;4990881;28;638446;-54
2021/04/14 06:56:02;;;;;;;16.30;8.80;;;;;;;3.71;68.80;103193.84;5013085;28;20046;-57
2021/04/14 06:58:35;;;;;;;14.30;8.70;;;;;;;3.84;69.20;103194.69;5012028;28;20054;-54
2021/04/14 07:01:06;;;;;;;14.02;9.07;;;;;;;3.93;69.21;103198.16;5011160;28;20575;-54
2021/04/14 07:03:37;;;;;;;14.98;9.73;;;;;;;4.04;69.40;103186.91;5013117;28;20149;-54
2021/04/14 07:06:08;;;;;;;13.95;8.77;;;;;;;4.14;67.29;103198.19;4995993;28;20061;-51
2021/04/14 07:09:05;;;;;;;15.95;9.20;;;;;;;4.30;66.57;103187.75;5013487;28;20053;-54
2021/04/14 07:11:31;;;;;;;15.57;9.30;;;;;;;4.47;66.71;103190.31;5011921;28;20414;-55
2021/04/14 07:13:58;;;;;;;14.93;8.65;;;;;;;4.54;66.08;103192.03;5011871;28;20477;-57
2021/04/14 07:16:34;;;;;;;20.08;8.90;;;;;;;4.76;64.45;103195.47;5011468;28;20064;-55
2021/04/14 07:19:06;;;;;;;12.52;8.15;;;;;;;4.84;63.29;103196.31;5011911;28;20050;-56
2021/04/14 07:21:37;;;;;;;14.40;8.70;;;;;;;4.88;63.95;103194.53;5012772;28;20054;-55
2021/04/14 07:24:10;;;;;;;15.15;9.45;;;;;;;4.98;64.86;103190.19;5011775;28;20796;-55
2021/04/14 07:26:49;;;;;;;16.23;9.43;;;;;;;5.08;64.78;103191.84;5011642;28;20056;-54
2021/04/14 07:29:40;;;;;;;14.75;9.55;;;;;;;5.40;63.36;103189.09;5011665;28;20054;-55
2021/04/14 07:32:29;;;;;;;16.65;8.73;;;;;;;5.64;63.32;103184.56;5011441;28;20062;-54
2021/04/14 07:35:10;;;;;;;13.68;7.68;;;;;;;5.91;62.03;103182.63;5012826;28;20054;-57
2021/04/14 07:38:04;;;;;;;14.23;7.80;;;;;;;6.11;60.21;103185.13;5012615;28;20550;-56
2021/04/14 07:40:39;;;;;;;11.48;7.55;;;;;;;5.97;59.24;103193.06;5012287;28;20037;-56
2021/04/14 07:43:26;;;;;;;13.75;8.48;;;;;;;5.87;59.47;103191.38;5011239;28;20061;-57
2021/04/14 07:45:53;;;;;;;14.82;8.40;;;;;;;5.96;58.59;103195.66;5012116;28;20042;-57
2021/04/14 07:48:24;;;;;;;12.60;7.50;;;;;;;6.03;57.70;103207.84;5012467;28;20057;-56
2021/04/14 07:50:58;;;;;;;14.15;8.05;;;;;;;6.00;57.77;103203.50;5011215;28;20057;-56
2021/04/14 07:53:34;;;;;;;15.10;7.80;;;;;;;6.03;58.77;103202.63;4995476;28;20077;-56
2021/04/14 07:56:13;;;;;;;13.85;8.57;;;;;;;5.96;60.33;103196.53;5011187;28;20058;-53
2021/04/14 07:58:41;;;;;;;15.73;9.45;;;;;;;5.95;62.67;103199.16;5012300;28;20057;-54
2021/04/14 08:01:15;;;;;;;13.93;8.85;;;;;;;5.84;63.33;103196.63;5011181;28;20046;-56
2021/04/14 08:03:42;;;;;;;13.65;7.22;;;;;;;5.70;62.15;103192.38;5011148;28;20408;-57
2021/04/14 08:06:12;;;;;;;12.77;7.57;;;;;;;5.56;63.50;103194.19;5012363;28;20057;-53
2021/04/14 08:08:39;;;;;;;13.98;8.45;;;;;;;5.48;65.03;103191.66;5010972;28;20048;-57
2021/04/14 08:11:17;;;;;;;14.23;7.75;;;;;;;5.50;62.42;103191.66;5012061;28;20041;-54
2021/04/14 08:13:43;;;;;;;15.00;8.93;;;;;;;5.20;65.63;103188.34;4994922;28;20520;-57
2021/04/14 08:16:39;;;;;;;16.55;9.23;;;;;;;5.18;68.05;103192.69;5010815;28;20042;-57
2021/04/14 08:19:17;;;;;;;14.05;8.40;;;;;;;5.18;68.34;103192.69;5011206;28;20045;-57
2021/04/14 08:21:59;;;;;;;15.98;9.48;;;;;;;5.37;67.73;103194.34;5012095;28;20045;-53
2021/04/14 08:24:32;;;;;;;16.02;9.23;;;;;;;5.33;65.12;103195.22;5012013;28;20127;-57
2021/04/14 08:27:13;;;;;;;15.73;9.05;;;;;;;5.34;66.07;103196.94;5027132;28;20042;-53
2021/04/14 08:29:39;;;;;;;16.88;9.73;;;;;;;5.14;66.07;103193.56;5011997;28;20488;-57
2021/04/14 08:32:10;;;;;;;15.82;10.27;;;;;;;5.29;65.60;103200.44;5010821;28;20053;-57
2021/04/14 08:34:38;;;;;;;16.70;10.25;;;;;;;5.18;66.29;103196.19;5026994;28;20371;-54
2021/04/14 08:37:05;;;;;;;18.23;10.90;;;;;;;5.52;65.81;103205.53;5027091;28;20156;-55
2021/04/14 08:39:42;;;;;;;17.08;10.35;;;;;;;5.85;64.51;103206.19;5010669;28;20054;-54
2021/04/14 08:42:09;;;;;;;18.52;10.90;;;;;;;6.22;67.55;103193.72;5010810;28;20049;-54
2021/04/14 08:44:37;;;;;;;17.50;10.65;;;;;;;6.34;62.46;103191.84;5011751;28;20046;-54
2021/04/14 08:47:10;;;;;;;18.73;10.73;;;;;;;6.54;62.89;103197.75;5011543;28;20042;-56
2021/04/14 08:49:39;;;;;;;19.75;11.02;;;;;;;6.57;63.48;103194.22;5010399;28;20521;-55
2021/04/14 08:52:19;;;;;;;16.23;10.43;;;;;;;6.76;62.26;103201.00;5010495;28;20058;-56
2021/04/14 08:54:45;;;;;;;16.10;9.43;;;;;;;6.87;60.88;103197.38;5011793;28;20086;-54
2021/04/14 08:57:13;;;;;;;15.35;9.98;;;;;;;6.86;60.78;103200.91;4994198;28;20144;-54
2021/04/14 08:59:40;;;;;;;14.23;9.48;;;;;;;6.88;62.85;103197.38;5026182;28;20408;-57
2021/04/14 09:02:08;;;;;;;15.45;8.90;;;;;;;7.07;61.18;103195.38;5009823;28;20052;-55
2021/04/14 09:04:36;;;;;;;14.38;8.65;;;;;;;6.99;60.74;103202.47;5011236;28;20052;-54
2021/04/14 09:07:04;;;;;;;17.08;9.95;;;;;;;7.06;60.40;103204.16;5011078;28;20053;-55
2021/04/14 09:09:42;;;;;;;15.20;10.00;;;;;;;7.12;61.93;103203.19;5009468;28;20073;-57
2021/04/14 09:12:17;;;;;;;17.27;10.23;;;;;;;7.20;61.53;103201.34;5009823;28;20052;-57
2021/04/14 09:14:43;;;;;;;15.75;9.80;;;;;;;7.40;61.55;103195.84;5026295;28;20535;-56
2021/04/14 09:17:13;;;;;;;17.10;10.70;;;;;;;7.72;61.37;103188.38;5010056;28;20041;-57
2021/04/14 09:19:41;;;;;;;16.63;10.82;;;;;;;8.00;59.64;103187.94;5011058;28;20508;-58
2021/04/14 09:22:26;;;;;;;16.30;10.80;;;;;;;8.17;60.43;103185.88;5011348;28;20473;-56
2021/04/14 09:25:07;;;;;;;18.27;10.68;;;;;;;8.07;57.91;103179.94;5014907;28;20046;-58
2021/04/14 09:27:36;;;;;;;17.20;10.75;;;;;;;7.90;58.00;103172.34;5014706;28;20044;-58
2021/04/14 09:30:08;;;;;;;16.73;10.98;;;;;;;8.18;57.91;103171.00;5014698;28;20042;-56
2021/04/14 09:32:55;;;;;;;15.63;11.20;;;;;;;8.42;57.78;103165.31;5014716;28;20509;-56
2021/04/14 09:35:28;;;;;;;16.42;10.50;;;;;;;8.58;56.91;103165.06;5014779;28;20041;-57
2021/04/14 09:38:06;;;;;;;16.83;10.55;;;;;;;8.65;54.53;103165.81;5014718;28;20092;-57
2021/04/14 09:40:34;;;;;;;18.27;11.40;;;;;;;8.69;54.58;103165.69;5029666;28;20045;-57
2021/04/14 09:43:15;;;;;;;16.13;10.73;;;;;;;8.49;54.58;103160.84;5013063;28;20042;-58
2021/04/14 09:45:56;;;;;;;17.42;10.23;;;;;;;8.49;53.79;103160.84;5029567;28;20046;-58
2021/04/14 09:48:23;;;;;;;15.75;10.35;;;;;;;8.44;53.29;103171.41;5029551;28;20519;-58
2021/04/14 09:50:50;;;;;;;17.05;10.63;;;;;;;8.36;54.18;103164.59;5029434;28;20046;-57
2021/04/14 09:53:31;;;;;;;17.92;10.55;;;;;;;8.19;53.86;103157.88;5013216;28;20069;-58
2021/04/14 09:56:13;;;;;;;18.23;10.43;;;;;;;8.05;55.38;103165.97;5012924;28;20038;-57
2021/04/14 09:58:47;;;;;;;17.10;10.75;;;;;;;8.00;55.03;103173.06;4997274;28;20080;-57
2021/04/14 10:01:20;;;;;;;16.10;10.77;;;;;;;7.70;56.60;103170.09;5013051;28;20054;-57
2021/04/14 10:03:48;;;;;;;21.05;10.93;;;;;;;7.85;58.03;103163.69;5013970;28;20042;-57
2021/04/14 10:06:22;;;;;;;18.20;12.02;;;;;;;7.90;57.82;103164.50;5012743;28;20050;-57
2021/04/14 10:08:48;;;;;;;20.15;11.55;;;;;;;7.92;57.53;103162.72;5014067;28;20045;-56
2021/04/14 10:11:27;;;;;;;18.05;12.15;;;;;;;7.83;56.65;103170.72;5013067;28;20619;-57
2021/04/14 10:13:55;;;;;;;18.10;12.25;;;;;;;7.84;57.55;103163.72;5013109;28;20056;-57
2021/04/14 10:16:23;;;;;;;19.75;12.57;;;;;;;7.75;58.94;103168.22;5012926;28;20065;-58
2021/04/14 10:19:04;;;;;;;16.73;11.55;;;;;;;7.64;58.60;103171.94;4996596;28;20508;-57
2021/04/14 10:21:31;;;;;;;17.08;11.23;;;;;;;7.11;59.55;103170.06;5014013;28;20088;-56
2021/04/14 10:24:03;;;;;;;16.75;11.90;;;;;;;7.05;60.90;103178.00;5012685;28;20044;-56
2021/04/14 10:26:33;;;;;;;20.58;12.55;;;;;;;7.02;61.26;103180.63;5012343;28;20096;-58
2021/04/14 10:29:00;;;;;;;21.70;12.93;;;;;;;6.77;62.52;103181.78;5013943;28;20050;-58
2021/04/14 10:31:30;;;;;;;20.48;12.77;;;;;;;6.67;63.04;103188.03;5013623;28;20061;-58
2021/04/14 10:34:12;;;;;;;19.20;12.07;;;;;;;6.72;62.70;103187.97;5012062;28;20046;-54
2021/04/14 10:36:43;;;;;;;18.48;12.43;;;;;;;6.32;65.04;103194.50;5028383;28;20073;-57
2021/04/14 10:39:24;;;;;;;19.70;13.48;;;;;;;6.15;65.76;103181.59;5012505;28;20492;-61
2021/04/14 10:41:53;;;;;;;16.55;11.98;;;;;;;6.14;64.44;103174.63;4996421;28;20050;-58
2021/04/14 10:44:25;;;;;;;18.45;12.82;;;;;;;6.08;67.82;103165.13;5013474;28;20064;-58
2021/04/14 10:46:59;;;;;;;18.83;12.10;;;;;;;5.98;67.84;103167.81;5013495;28;20133;-55
2021/04/14 10:49:29;;;;;;;18.83;12.63;;;;;;;6.17;68.71;103163.28;5012140;28;20132;-58
2021/04/14 10:51:57;;;;;;;16.63;11.73;;;;;;;5.91;67.11;103159.13;5013217;28;20493;-54
2021/04/14 10:54:27;;;;;;;15.45;10.95;;;;;;;5.98;67.27;103167.81;5028432;28;20050;-55
2021/04/14 10:57:07;;;;;;;26.50;11.32;;;;;;;6.09;67.08;103160.75;5028285;28;20045;-57
2021/04/14 10:59:34;;;;;;;16.00;10.80;;;;;;;6.17;66.21;103156.31;4995697;28;20069;-56
2021/04/14 11:02:00;;;;;;;15.13;11.10;;;;;;;6.23;67.23;103163.22;4995951;28;20053;-57
2021/04/14 11:04:35;;;;;;;16.10;9.85;;;;;;;6.18;65.92;103165.03;5013070;28;20497;-55
2021/04/14 11:07:16;;;;;;;14.95;9.90;;;;;;;6.23;65.73;103169.31;5013228;28;20566;-57
2021/04/14 11:09:44;;;;;;;14.88;9.70;;;;;;;6.37;66.65;103158.72;5012047;28;20128;-57
2021/04/14 11:12:15;;;;;;;12.90;9.35;;;;;;;6.39;65.64;103150.88;4995803;28;20084;-57
2021/04/14 11:14:44;;;;;;;15.70;9.85;;;;;;;6.70;65.20;103148.75;5011565;28;20050;-54
2021/04/14 11:17:31;;;;;;;14.85;9.27;;;;;;;7.01;64.02;103142.25;5011605;28;20052;-54
2021/04/14 11:20:08;;;;;;;14.40;9.85;;;;;;;7.42;67.16;103141.69;5013089;28;20488;-55
2021/04/14 11:22:49;;;;;;;13.05;8.98;;;;;;;7.27;62.62;103145.41;5012971;28;20049;-57
2021/04/14 11:25:28;;;;;;;12.70;8.45;;;;;;;7.56;59.59;103140.63;5011661;28;20448;-58
2021/04/14 11:28:11;;;;;;;13.38;8.57;;;;;;;7.63;58.20;103123.91;5011695;28;20548;-57
2021/04/14 11:30:47;;;;;;;13.52;8.40;;;;;;;8.34;59.24;103129.66;5011579;28;20120;-57
2021/04/14 11:33:14;;;;;;;16.77;9.05;;;;;;;8.73;58.33;103121.91;5011412;28;20065;-56
2021/04/14 11:35:42;;;;;;;12.35;7.75;;;;;;;9.21;54.15;103116.47;5012605;28;20057;-57